createdAt,value
2023-02-09T00:00:09.529Z,24.50
2023-02-09T00:02:44.803Z,22.15
2023-02-09T00:05:14.590Z,23.00
2023-02-09T00:07:41.192Z,29.13
2023-02-09T00:10:08.258Z,25.67
2023-02-09T00:12:55.518Z,25.60
2023-02-09T00:15:22.129Z,25.40
2023-02-09T00:17:48.743Z,19.95
2023-02-09T00:20:15.305Z,22.90
2023-02-09T00:22:41.898Z,20.80
2023-02-09T00:25:08.483Z,23.77
2023-02-09T00:27:35.831Z,31.20
2023-02-09T00:30:04.398Z,22.75
2023-02-09T00:32:33.031Z,25.33
2023-02-09T00:34:59.616Z,24.93
2023-02-09T00:37:28.044Z,25.25
2023-02-09T00:39:54.693Z,24.38
2023-02-09T00:42:21.193Z,21.00
2023-02-09T00:44:47.765Z,28.75
2023-02-09T00:47:14.704Z,23.17
2023-02-09T00:49:41.377Z,24.10
2023-02-09T00:52:09.935Z,26.40
2023-02-09T00:54:37.119Z,22.52
2023-02-09T00:57:05.489Z,21.45
2023-02-09T00:59:34.891Z,21.05
2023-02-09T01:02:02.609Z,22.65
2023-02-09T01:04:29.399Z,22.50
2023-02-09T01:06:56.128Z,21.45
2023-02-09T01:09:22.764Z,19.45
2023-02-09T01:11:49.465Z,21.42
2023-02-09T01:14:16.550Z,21.42
2023-02-09T01:16:43.260Z,17.58
2023-02-09T01:19:12.127Z,21.20
2023-02-09T01:21:39.005Z,17.40
2023-02-09T01:24:06.107Z,19.13
2023-02-09T01:26:33.035Z,20.80
2023-02-09T01:28:59.608Z,25.70
2023-02-09T01:31:32.234Z,18.98
2023-02-09T01:34:01.723Z,18.95
2023-02-09T01:36:29.738Z,19.15
2023-02-09T01:38:58.111Z,18.95
2023-02-09T01:41:25.265Z,18.95
2023-02-09T01:44:05.221Z,20.95
2023-02-09T01:46:36.243Z,21.10
2023-02-09T01:49:03.047Z,18.50
2023-02-09T01:51:33.005Z,19.45
2023-02-09T01:53:59.746Z,17.52
2023-02-09T01:56:30.821Z,18.02
2023-02-09T01:58:58.545Z,20.55
2023-02-09T02:01:26.816Z,20.23
2023-02-09T02:03:54.446Z,18.50
2023-02-09T02:06:21.504Z,24.90
2023-02-09T02:09:04.686Z,17.38
2023-02-09T02:11:32.885Z,20.63
2023-02-09T02:13:59.755Z,17.85
2023-02-09T02:16:48.574Z,20.02
2023-02-09T02:20:12.739Z,18.67
2023-02-09T02:22:52.199Z,18.85
2023-02-09T02:25:34.848Z,22.75
2023-02-09T02:28:16.993Z,18.83
2023-02-09T02:31:08.279Z,20.73
2023-02-09T02:34:11.195Z,19.52
2023-02-09T02:36:57.954Z,19.55
2023-02-09T02:39:33.615Z,21.80
2023-02-09T02:42:32.515Z,19.00
2023-02-09T02:45:12.161Z,17.80
2023-02-09T02:50:15.151Z,16.20
2023-02-09T02:52:46.428Z,18.98
2023-02-09T02:55:17.326Z,20.20
2023-02-09T02:57:48.364Z,18.25
2023-02-09T03:00:32.197Z,21.08
2023-02-09T03:03:03.869Z,18.60
2023-02-09T03:05:32.033Z,20.17
2023-02-09T03:07:58.763Z,18.90
2023-02-09T03:10:37.784Z,22.60
2023-02-09T03:13:13.457Z,18.00
2023-02-09T03:16:03.103Z,20.02
2023-02-09T03:18:40.437Z,19.15
2023-02-09T03:21:25.109Z,18.05
2023-02-09T03:23:58.966Z,22.33
2023-02-09T03:26:30.294Z,20.77
2023-02-09T03:28:59.025Z,21.02
2023-02-09T03:31:27.999Z,17.88
2023-02-09T03:33:57.482Z,18.40
2023-02-09T03:36:25.661Z,23.10
2023-02-09T03:38:52.294Z,19.55
2023-02-09T03:41:19.200Z,21.45
2023-02-09T03:44:04.150Z,19.85
2023-02-09T03:46:33.329Z,21.55
2023-02-09T03:49:00.061Z,22.35
2023-02-09T03:51:26.780Z,20.05
2023-02-09T03:53:53.411Z,18.23
2023-02-09T03:56:19.977Z,19.58
2023-02-09T03:58:46.561Z,17.98
2023-02-09T04:01:13.172Z,19.02
2023-02-09T04:03:39.871Z,20.73
2023-02-09T04:06:09.920Z,23.45
2023-02-09T04:08:36.700Z,22.48
2023-02-09T04:11:03.659Z,18.73
2023-02-09T04:13:30.252Z,22.65
2023-02-09T04:15:56.833Z,20.88
2023-02-09T04:18:23.469Z,22.45
2023-02-09T04:20:50.108Z,22.45
2023-02-09T04:23:17.332Z,25.63
2023-02-09T04:25:44.734Z,23.33
2023-02-09T04:28:11.464Z,23.30
2023-02-09T04:30:38.194Z,20.17
2023-02-09T04:33:04.884Z,22.10
2023-02-09T04:35:31.539Z,23.35
2023-02-09T04:37:58.111Z,23.10
2023-02-09T04:40:24.642Z,24.27
2023-02-09T04:42:51.256Z,21.23
2023-02-09T04:45:17.961Z,20.40
2023-02-09T04:47:44.558Z,23.42
2023-02-09T04:50:15.044Z,22.67
2023-02-09T04:52:41.592Z,23.83
2023-02-09T04:55:08.435Z,23.70
2023-02-09T04:57:53.707Z,24.02
2023-02-09T05:00:20.420Z,25.50
2023-02-09T05:02:46.961Z,22.85
2023-02-09T05:05:13.616Z,22.08
2023-02-09T05:07:40.508Z,23.70
2023-02-09T05:10:07.315Z,25.20
2023-02-09T05:12:33.872Z,20.88
2023-02-09T05:15:00.470Z,21.23
2023-02-09T05:17:27.037Z,20.30
2023-02-09T05:19:53.679Z,21.50
2023-02-09T05:22:20.286Z,20.67
2023-02-09T05:24:46.834Z,18.15
2023-02-09T05:27:13.477Z,23.00
2023-02-09T05:29:40.133Z,25.60
2023-02-09T05:32:06.836Z,27.13
2023-02-09T05:34:33.542Z,22.23
2023-02-09T05:37:00.111Z,17.95
2023-02-09T05:39:26.728Z,26.60
2023-02-09T05:42:11.955Z,21.88
2023-02-09T05:44:38.545Z,19.90
2023-02-09T05:47:05.170Z,20.50
2023-02-09T05:49:31.844Z,21.98
2023-02-09T05:51:58.421Z,22.27
2023-02-09T05:54:25.067Z,25.52
2023-02-09T05:56:51.729Z,22.60
2023-02-09T05:59:18.491Z,22.73
2023-02-09T06:01:45.075Z,23.33
2023-02-09T06:04:11.991Z,17.85
2023-02-09T06:06:38.556Z,22.08
2023-02-09T06:09:05.351Z,20.67
2023-02-09T06:11:31.940Z,23.05
2023-02-09T06:13:58.710Z,21.45
2023-02-09T06:16:25.917Z,22.98
2023-02-09T06:18:52.594Z,27.83
2023-02-09T06:21:19.296Z,32.80
2023-02-09T06:23:46.137Z,31.25
2023-02-09T06:26:15.881Z,32.35
2023-02-09T06:28:43.122Z,32.35
2023-02-09T06:31:10.380Z,30.70
2023-02-09T06:33:38.072Z,37.42
2023-02-09T06:36:06.142Z,32.00
2023-02-09T06:38:34.375Z,28.05
2023-02-09T06:41:01.089Z,28.23
2023-02-09T06:43:27.779Z,24.25
2023-02-09T06:45:54.542Z,24.67
2023-02-09T06:48:21.202Z,26.90
2023-02-09T06:50:48.193Z,28.60
2023-02-09T06:53:16.075Z,24.90
2023-02-09T06:55:42.694Z,30.10
2023-02-09T06:58:09.627Z,28.98
2023-02-09T07:00:36.322Z,26.50
2023-02-09T07:03:03.359Z,25.20
2023-02-09T07:05:31.419Z,27.45
2023-02-09T07:07:58.049Z,22.38
2023-02-09T07:10:25.062Z,30.35
2023-02-09T07:12:51.702Z,26.88
2023-02-09T07:15:18.399Z,23.77
2023-02-09T07:17:45.004Z,22.02
2023-02-09T07:20:12.661Z,25.83
2023-02-09T07:22:39.286Z,29.55
2023-02-09T07:25:06.346Z,28.33
2023-02-09T07:27:32.925Z,31.73
2023-02-09T07:30:01.078Z,32.28
2023-02-09T07:32:28.030Z,26.33
2023-02-09T07:34:54.641Z,30.42
2023-02-09T07:37:21.196Z,29.50
2023-02-09T07:39:48.018Z,31.95
2023-02-09T07:42:14.743Z,30.77
2023-02-09T07:44:48.927Z,37.55
2023-02-09T07:47:15.624Z,31.02
2023-02-09T07:49:42.371Z,29.75
2023-02-09T07:52:08.960Z,31.15
2023-02-09T07:54:35.573Z,29.20
2023-02-09T07:57:02.111Z,28.42
2023-02-09T07:59:28.780Z,33.75
2023-02-09T08:01:55.410Z,29.33
2023-02-09T08:04:22.785Z,26.05
2023-02-09T08:06:49.631Z,30.48
2023-02-09T08:09:19.481Z,36.03
2023-02-09T08:11:58.465Z,34.50
2023-02-09T08:14:39.944Z,30.65
2023-02-09T08:17:24.391Z,27.05
2023-02-09T08:20:06.503Z,28.13
2023-02-09T08:22:38.521Z,27.90
2023-02-09T08:25:06.171Z,29.75
2023-02-09T08:27:32.956Z,31.20
2023-02-09T08:30:00.642Z,21.90
2023-02-09T08:32:27.289Z,21.42
2023-02-09T08:34:53.894Z,25.63
2023-02-09T08:37:20.499Z,24.77
2023-02-09T08:39:47.157Z,25.30
2023-02-09T08:42:13.721Z,24.35
2023-02-09T08:44:40.289Z,27.05
2023-02-09T08:47:06.827Z,21.95
2023-02-09T08:49:33.493Z,22.05
2023-02-09T08:52:00.057Z,24.88
2023-02-09T08:54:27.041Z,24.23
2023-02-09T08:56:53.806Z,27.92
2023-02-09T08:59:21.894Z,21.55
2023-02-09T09:01:48.485Z,21.55
2023-02-09T09:04:15.092Z,24.25
2023-02-09T09:06:42.764Z,26.85
2023-02-09T09:09:11.679Z,29.25
2023-02-09T09:11:38.660Z,20.17
2023-02-09T09:14:05.294Z,24.52
2023-02-09T09:16:32.138Z,28.55
2023-02-09T09:18:59.229Z,28.75
2023-02-09T09:21:26.019Z,27.70
2023-02-09T09:23:52.789Z,26.63
2023-02-09T09:26:19.436Z,27.05
2023-02-09T09:28:50.146Z,28.42
2023-02-09T09:31:18.205Z,28.48
2023-02-09T09:33:45.603Z,24.10
2023-02-09T09:36:14.574Z,24.95
2023-02-09T09:38:41.260Z,26.20
2023-02-09T09:41:32.019Z,29.67
2023-02-09T09:44:00.638Z,22.80
2023-02-09T09:46:39.929Z,28.48
2023-02-09T09:49:07.686Z,27.75
2023-02-09T09:51:44.608Z,26.73
2023-02-09T09:54:20.197Z,25.02
2023-02-09T09:56:47.843Z,29.45
2023-02-09T09:59:21.704Z,32.33
2023-02-09T10:01:51.253Z,30.77
2023-02-09T10:06:56.421Z,29.23
2023-02-09T10:09:33.441Z,31.25
2023-02-09T10:12:36.947Z,28.52
2023-02-09T10:15:36.739Z,27.15
2023-02-09T10:18:06.549Z,28.77
2023-02-09T10:20:49.521Z,25.35
2023-02-09T10:23:22.166Z,26.73
2023-02-09T10:25:57.378Z,26.60
2023-02-09T10:28:27.196Z,25.63
2023-02-09T10:30:55.995Z,25.02
2023-02-09T10:33:22.597Z,23.13
2023-02-09T10:35:55.212Z,25.85
2023-02-09T10:38:26.155Z,28.92
2023-02-09T10:40:53.154Z,25.30
2023-02-09T10:43:25.965Z,24.05
2023-02-09T10:45:56.380Z,25.13
2023-02-09T10:48:25.169Z,26.17
2023-02-09T10:51:05.232Z,20.93
2023-02-09T10:53:38.544Z,26.75
2023-02-09T10:56:14.351Z,23.63
2023-02-09T10:58:41.062Z,24.27
2023-02-09T11:01:26.454Z,26.33
2023-02-09T11:04:05.180Z,20.35
2023-02-09T11:06:59.181Z,20.80
2023-02-09T11:09:33.273Z,23.13
2023-02-09T11:12:00.474Z,21.77
2023-02-09T11:14:27.514Z,20.58
2023-02-09T11:17:28.267Z,22.45
2023-02-09T11:20:23.347Z,21.83
2023-02-09T11:23:11.437Z,20.58
2023-02-09T11:25:45.406Z,23.42
2023-02-09T11:28:39.633Z,19.27
2023-02-09T11:31:31.213Z,18.98
2023-02-09T11:34:43.465Z,20.30
2023-02-09T11:37:21.918Z,19.00
2023-02-09T11:39:57.510Z,22.95
2023-02-09T11:42:46.970Z,22.80
2023-02-09T11:45:20.656Z,24.23
2023-02-09T11:48:05.841Z,20.63
2023-02-09T11:50:38.560Z,21.70
2023-02-09T11:53:37.098Z,27.85
2023-02-09T11:56:11.220Z,20.20
2023-02-09T11:58:47.297Z,24.05
2023-02-09T12:01:48.812Z,25.02
2023-02-09T12:04:24.676Z,18.63
2023-02-09T12:06:55.880Z,21.77
2023-02-09T12:09:43.520Z,24.60
2023-02-09T12:12:31.386Z,22.67
2023-02-09T12:15:00.873Z,23.25
2023-02-09T12:17:41.437Z,22.67
2023-02-09T12:20:28.391Z,23.27
2023-02-09T12:22:58.073Z,21.60
2023-02-09T12:25:45.808Z,24.88
2023-02-09T12:28:14.508Z,26.48
2023-02-09T12:30:41.136Z,22.43
2023-02-09T12:33:17.383Z,28.42
2023-02-09T12:36:00.938Z,24.63
2023-02-09T12:38:49.305Z,24.50
2023-02-09T12:41:18.854Z,21.23
2023-02-09T12:43:46.417Z,15.13
2023-02-09T12:46:15.266Z,22.02
2023-02-09T12:49:01.638Z,24.63
2023-02-09T12:52:00.638Z,21.10
2023-02-09T12:54:46.634Z,21.02
2023-02-09T12:57:16.617Z,20.38
2023-02-09T12:59:52.359Z,20.90
2023-02-09T13:02:50.580Z,24.92
2023-02-09T13:05:18.640Z,20.67
2023-02-09T13:07:54.360Z,32.80
2023-02-09T13:10:42.637Z,18.95
2023-02-09T13:13:11.965Z,21.02
2023-02-09T13:15:47.896Z,21.83
2023-02-09T13:18:23.945Z,22.60
2023-02-09T13:20:57.528Z,26.15
2023-02-09T13:23:33.680Z,20.05
2023-02-09T13:26:22.599Z,20.75
2023-02-09T13:28:49.566Z,25.02
2023-02-09T13:31:26.395Z,19.23
2023-02-09T13:33:58.547Z,23.63
2023-02-09T13:36:25.574Z,20.50
2023-02-09T13:38:52.736Z,20.77
2023-02-09T13:41:36.501Z,21.48
2023-02-09T13:44:03.576Z,18.42
2023-02-09T13:46:34.982Z,20.65
2023-02-09T13:49:19.270Z,21.42
2023-02-09T13:51:46.278Z,21.63
2023-02-09T13:54:20.493Z,19.55
2023-02-09T13:56:47.252Z,20.80
2023-02-09T13:59:18.061Z,20.55
2023-02-09T14:01:48.260Z,19.00
2023-02-09T14:04:25.490Z,22.38
2023-02-09T14:07:10.217Z,22.70
2023-02-09T14:09:49.118Z,24.17
2023-02-09T14:12:43.534Z,18.70
2023-02-09T14:15:31.928Z,22.45
2023-02-09T14:17:58.536Z,21.48
2023-02-09T14:20:25.607Z,20.13
2023-02-09T14:23:00.965Z,20.30
2023-02-09T14:25:29.787Z,20.35
2023-02-09T14:27:57.169Z,15.17
2023-02-09T14:30:32.150Z,20.02
2023-02-09T14:33:01.781Z,24.30
2023-02-09T14:35:40.664Z,19.80
2023-02-09T14:38:42.352Z,28.83
2023-02-09T14:41:26.553Z,25.27
2023-02-09T14:44:22.555Z,21.27
2023-02-09T14:46:49.253Z,22.40
2023-02-09T14:49:16.146Z,25.73
2023-02-09T14:51:43.756Z,19.92
2023-02-09T14:54:18.989Z,21.70
2023-02-09T14:56:46.046Z,22.90
2023-02-09T14:59:16.956Z,19.48
2023-02-09T15:01:44.291Z,21.00
2023-02-09T15:04:10.885Z,20.48
2023-02-09T15:06:39.198Z,21.38
2023-02-09T15:09:06.965Z,19.30
2023-02-09T15:11:53.105Z,18.60
2023-02-09T15:14:24.558Z,21.45
2023-02-09T15:16:51.879Z,22.33
2023-02-09T15:19:21.996Z,21.23
2023-02-09T15:22:05.264Z,21.02
2023-02-09T15:24:33.967Z,20.90
2023-02-09T15:27:01.827Z,19.70
2023-02-09T15:29:28.948Z,18.23
2023-02-09T15:31:56.080Z,18.17
2023-02-09T15:34:23.312Z,19.27
2023-02-09T15:36:50.797Z,19.05
2023-02-09T15:39:23.527Z,22.23
2023-02-09T15:42:09.560Z,17.25
2023-02-09T15:44:55.294Z,23.40
2023-02-09T15:47:40.837Z,17.40
2023-02-09T15:50:07.887Z,18.55
2023-02-09T15:52:35.005Z,19.65
2023-02-09T15:55:02.425Z,21.45
2023-02-09T15:57:29.455Z,18.15
2023-02-09T15:59:56.844Z,20.83
2023-02-09T16:02:24.031Z,18.58
2023-02-09T16:04:51.060Z,18.83
2023-02-09T16:07:26.107Z,21.20
2023-02-09T16:09:53.408Z,21.92
2023-02-09T16:12:20.715Z,24.98
2023-02-09T16:14:47.997Z,23.08
2023-02-09T16:17:15.030Z,20.13
2023-02-09T16:19:42.097Z,20.58
2023-02-09T16:22:09.230Z,20.08
2023-02-09T16:24:45.115Z,21.90
2023-02-09T16:27:21.978Z,20.55
2023-02-09T16:29:49.084Z,24.80
2023-02-09T16:32:18.726Z,23.30
2023-02-09T16:34:46.285Z,25.63
2023-02-09T16:37:20.033Z,20.60
2023-02-09T16:39:47.299Z,22.73
2023-02-09T16:42:16.052Z,21.83
2023-02-09T16:44:43.881Z,22.80
2023-02-09T16:47:26.271Z,24.95
2023-02-09T16:50:00.762Z,26.60
2023-02-09T16:52:30.172Z,21.73
2023-02-09T16:55:00.970Z,24.08
2023-02-09T16:57:29.117Z,21.05
2023-02-09T16:59:56.497Z,22.30
2023-02-09T17:02:34.211Z,28.10
2023-02-09T17:05:04.020Z,29.08
2023-02-09T17:07:48.765Z,21.23
2023-02-09T17:10:23.073Z,26.85
2023-02-09T17:12:53.497Z,25.77
2023-02-09T17:15:31.724Z,24.95
2023-02-09T17:18:08.827Z,23.52
2023-02-09T17:20:44.637Z,25.65
2023-02-09T17:23:23.110Z,25.23
2023-02-09T17:25:51.777Z,26.17
2023-02-09T17:28:19.521Z,28.83
2023-02-09T17:30:48.271Z,26.65
2023-02-09T17:33:24.680Z,24.15
2023-02-09T17:38:44.924Z,28.63
2023-02-09T17:41:21.229Z,28.65
2023-02-09T17:43:50.765Z,29.65
2023-02-09T17:46:19.108Z,35.92
2023-02-09T17:48:47.565Z,33.53
2023-02-09T17:51:29.834Z,34.65
2023-02-09T17:53:57.085Z,35.40
2023-02-09T17:56:24.076Z,38.47
2023-02-09T17:58:51.262Z,35.88
2023-02-09T18:01:25.349Z,38.47
2023-02-09T18:03:58.767Z,34.17
2023-02-09T18:06:35.526Z,32.92
2023-02-09T18:09:04.789Z,35.38
2023-02-09T18:11:56.930Z,27.15
2023-02-09T18:14:25.130Z,27.25
2023-02-09T18:16:52.753Z,24.25
2023-02-09T18:19:20.080Z,22.92
2023-02-09T18:21:51.772Z,24.83
2023-02-09T18:24:20.349Z,27.17
2023-02-09T18:26:47.853Z,23.90
2023-02-09T18:29:14.626Z,26.30
2023-02-09T18:31:41.485Z,25.02
2023-02-09T18:34:08.337Z,26.15
2023-02-09T18:36:35.655Z,31.95
2023-02-09T18:39:02.491Z,29.15
2023-02-09T18:41:29.230Z,27.85
2023-02-09T18:43:56.265Z,28.30
2023-02-09T18:46:25.289Z,25.42
2023-02-09T18:48:52.078Z,24.63
2023-02-09T18:51:18.755Z,27.00
2023-02-09T18:53:45.391Z,23.40
2023-02-09T18:56:22.418Z,23.92
2023-02-09T18:58:52.581Z,21.88
2023-02-09T19:01:21.306Z,28.67
2023-02-09T19:03:52.311Z,23.63
2023-02-09T19:06:20.856Z,29.35
2023-02-09T19:08:50.130Z,32.15
2023-02-09T19:11:18.518Z,21.25
2023-02-09T19:14:08.217Z,23.23
2023-02-09T19:16:37.994Z,25.15
2023-02-09T19:19:04.764Z,33.15
2023-02-09T19:21:32.278Z,25.33
2023-02-09T19:23:58.918Z,26.40
2023-02-09T19:26:25.642Z,25.08
2023-02-09T19:28:52.232Z,26.80
2023-02-09T19:31:18.885Z,24.20
2023-02-09T19:33:45.556Z,25.27
2023-02-09T19:36:12.506Z,24.50
2023-02-09T19:38:39.081Z,28.95
2023-02-09T19:41:11.850Z,26.67
2023-02-09T19:43:39.839Z,24.50
2023-02-09T19:46:08.140Z,28.27
2023-02-09T19:48:34.765Z,30.98
2023-02-09T19:51:04.306Z,30.85
2023-02-09T19:53:31.533Z,27.85
2023-02-09T19:55:58.152Z,28.90
2023-02-09T19:58:24.867Z,28.30
2023-02-09T20:00:53.435Z,25.85
2023-02-09T20:03:20.064Z,31.77
2023-02-09T20:05:47.031Z,27.80
2023-02-09T20:08:17.061Z,25.17
2023-02-09T20:10:46.817Z,27.77
2023-02-09T20:13:14.989Z,27.40
2023-02-09T20:15:43.859Z,26.55
2023-02-09T20:18:13.380Z,32.13
2023-02-09T20:20:43.088Z,29.55
2023-02-09T20:23:10.092Z,30.17
2023-02-09T20:25:40.385Z,33.30
2023-02-09T20:28:07.246Z,26.38
2023-02-09T20:30:34.223Z,26.85
2023-02-09T20:33:01.105Z,29.10
2023-02-09T20:35:27.664Z,30.35
2023-02-09T20:37:54.307Z,32.58
2023-02-09T20:40:21.600Z,27.92
2023-02-09T20:43:07.210Z,34.05
2023-02-09T20:45:52.406Z,33.70
2023-02-09T20:48:19.736Z,31.92
2023-02-09T20:50:46.728Z,30.63
2023-02-09T20:53:13.539Z,28.00
2023-02-09T20:55:40.274Z,28.67
2023-02-09T20:58:06.999Z,32.47
2023-02-09T21:00:33.794Z,35.80
2023-02-09T21:03:00.682Z,33.20
2023-02-09T21:05:27.498Z,31.42
2023-02-09T21:07:54.258Z,33.83
2023-02-09T21:10:21.784Z,33.20
2023-02-09T21:12:48.379Z,37.78
2023-02-09T21:15:15.954Z,32.50
2023-02-09T21:17:47.837Z,37.25
2023-02-09T21:20:16.764Z,33.67
2023-02-09T21:22:43.443Z,28.60
2023-02-09T21:25:10.598Z,29.88
2023-02-09T21:27:40.535Z,32.42
2023-02-09T21:30:07.452Z,35.88
2023-02-09T21:32:35.027Z,33.25
2023-02-09T21:35:02.007Z,35.22
2023-02-09T21:37:32.179Z,31.73
2023-02-09T21:40:02.979Z,34.38
2023-02-09T21:42:31.207Z,39.13
2023-02-09T21:44:59.466Z,34.92
2023-02-09T21:47:31.456Z,37.42
2023-02-09T21:49:58.861Z,32.10
2023-02-09T21:52:26.550Z,35.72
2023-02-09T21:54:53.852Z,36.08
2023-02-09T21:57:21.312Z,37.50
2023-02-09T21:59:48.130Z,38.80
2023-02-09T22:02:17.184Z,35.88
2023-02-09T22:04:45.593Z,37.97
2023-02-09T22:07:13.401Z,40.80
2023-02-09T22:09:41.756Z,37.70
2023-02-09T22:12:08.928Z,38.22
2023-02-09T22:14:35.702Z,41.40
2023-02-09T22:17:02.551Z,38.80
2023-02-09T22:19:29.205Z,45.33
2023-02-09T22:21:57.947Z,40.63
2023-02-09T22:24:25.149Z,40.90
2023-02-09T22:26:51.903Z,39.42
2023-02-09T22:29:19.406Z,42.85
2023-02-09T22:31:46.333Z,44.40
2023-02-09T22:34:13.330Z,43.67
2023-02-09T22:36:40.057Z,40.05
2023-02-09T22:39:07.524Z,47.28
2023-02-09T22:41:34.953Z,43.28
2023-02-09T22:44:12.918Z,47.15
2023-02-09T22:46:41.372Z,43.95
2023-02-09T22:49:19.415Z,44.33
2023-02-09T22:51:47.871Z,45.35
2023-02-09T22:54:16.447Z,42.92
2023-02-09T22:56:43.487Z,46.95
2023-02-09T22:59:12.606Z,44.45
2023-02-09T23:01:39.709Z,50.45
2023-02-09T23:04:06.452Z,47.78
2023-02-09T23:06:33.116Z,49.38
2023-02-09T23:09:02.522Z,48.97
2023-02-09T23:11:30.662Z,47.88
2023-02-09T23:14:09.201Z,54.60
2023-02-09T23:16:38.181Z,48.42
2023-02-09T23:19:08.399Z,49.35
2023-02-09T23:21:38.148Z,49.22
2023-02-09T23:24:05.603Z,49.38
2023-02-09T23:26:32.822Z,47.88
2023-02-09T23:29:01.697Z,49.63
2023-02-09T23:31:28.755Z,47.58
2023-02-09T23:33:55.800Z,57.83
2023-02-09T23:36:25.166Z,47.47
2023-02-09T23:38:57.065Z,50.53
2023-02-09T23:41:24.942Z,49.90
2023-02-09T23:43:52.607Z,51.28
2023-02-09T23:46:22.025Z,45.03
2023-02-09T23:48:49.024Z,49.30
2023-02-09T23:51:19.311Z,54.10
2023-02-09T23:53:47.567Z,52.80
2023-02-09T23:56:15.692Z,55.45
2023-02-09T23:58:45.178Z,49.38
